createdAt,value
2023-02-22T00:00:44.744Z,5.74
2023-02-22T00:04:34.079Z,5.74
2023-02-22T00:08:23.600Z,5.72
2023-02-22T00:12:14.003Z,5.71
2023-02-22T00:16:02.898Z,5.70
2023-02-22T00:43:02.484Z,5.34
2023-02-22T00:46:51.918Z,5.25
2023-02-22T00:50:40.804Z,5.19
2023-02-22T00:54:22.297Z,5.12
2023-02-22T00:58:11.390Z,5.04
2023-02-22T01:02:00.122Z,4.92
2023-02-22T01:05:49.222Z,4.81
2023-02-22T01:09:38.224Z,4.69
2023-02-22T01:13:27.259Z,4.58
2023-02-22T01:17:16.385Z,4.46
2023-02-22T01:21:08.457Z,4.35
2023-02-22T01:24:57.762Z,4.21
2023-02-22T01:28:47.819Z,4.11
2023-02-22T01:32:35.732Z,4.01
2023-02-22T01:36:24.598Z,3.94
2023-02-22T01:40:13.568Z,3.91
2023-02-22T01:44:03.180Z,3.91
2023-02-22T01:59:31.119Z,3.80
2023-02-22T02:03:20.371Z,3.75
2023-02-22T02:07:09.274Z,3.70
2023-02-22T02:10:59.374Z,3.62
2023-02-22T02:14:56.047Z,3.54
2023-02-22T02:18:46.790Z,3.45
2023-02-22T02:31:20.567Z,3.24
2023-02-22T02:35:21.797Z,3.23
2023-02-22T02:39:25.885Z,3.19
2023-02-22T02:51:51.598Z,3.02
2023-02-22T02:55:39.075Z,3.01
2023-02-22T02:59:26.964Z,3.01
2023-02-22T03:03:36.488Z,3.03
2023-02-22T03:15:49.244Z,3.12
2023-02-22T03:19:49.486Z,3.14
2023-02-22T03:32:01.078Z,3.27
2023-02-22T03:35:51.185Z,3.32
2023-02-22T03:39:41.159Z,3.36
2023-02-22T03:43:32.887Z,3.41
2023-02-22T03:55:07.334Z,3.52
2023-02-22T03:58:56.696Z,3.54
2023-02-22T04:02:45.897Z,3.55
2023-02-22T04:06:34.944Z,3.57
2023-02-22T04:11:12.123Z,3.59
2023-02-22T04:14:59.598Z,3.60
2023-02-22T04:18:47.269Z,3.59
2023-02-22T04:22:35.090Z,3.61
2023-02-22T04:26:23.022Z,3.63
2023-02-22T04:30:10.677Z,3.65
2023-02-22T04:33:58.321Z,3.67
2023-02-22T04:37:48.100Z,3.68
2023-02-22T04:53:27.574Z,3.78
2023-02-22T04:57:16.663Z,3.81
2023-02-22T05:01:05.847Z,3.83
2023-02-22T05:04:55.184Z,3.84
2023-02-22T05:20:34.443Z,3.92
2023-02-22T05:24:23.769Z,3.94
2023-02-22T05:28:13.118Z,3.95
2023-02-22T05:32:02.249Z,3.97
2023-02-22T05:35:07.103Z,3.99
2023-02-22T05:38:43.549Z,4.01
2023-02-22T05:42:27.232Z,4.03
2023-02-22T05:46:08.627Z,4.04
2023-02-22T05:49:48.782Z,4.04
2023-02-22T05:53:36.556Z,4.03
2023-02-22T05:56:48.583Z,4.04
2023-02-22T06:00:36.719Z,4.05
2023-02-22T06:04:16.105Z,4.05
2023-02-22T06:07:58.338Z,4.03
2023-02-22T06:22:27.904Z,4.03
2023-02-22T06:25:14.989Z,4.04
2023-02-22T06:28:45.378Z,4.06
2023-02-22T06:32:22.014Z,4.08
2023-02-22T06:36:09.509Z,4.10
2023-02-22T06:39:21.084Z,4.13
2023-02-22T06:42:28.537Z,4.17
2023-02-22T06:45:56.083Z,4.22
2023-02-22T06:49:33.636Z,4.28
2023-02-22T06:53:14.156Z,4.36
2023-02-22T06:56:53.407Z,4.46
2023-02-22T07:00:41.437Z,4.57
2023-02-22T07:08:44.455Z,4.86
2023-02-22T07:12:11.671Z,4.98
2023-02-22T07:15:58.747Z,5.12
2023-02-22T07:19:27.335Z,5.28
2023-02-22T07:23:15.004Z,5.40
2023-02-22T07:26:47.441Z,5.53
2023-02-22T07:30:26.809Z,5.65
2023-02-22T07:34:05.888Z,5.77
2023-02-22T07:37:17.194Z,5.88
2023-02-22T07:40:45.165Z,5.97
2023-02-22T07:46:49.755Z,6.11
2023-02-22T07:49:28.757Z,6.18
2023-02-22T07:56:21.883Z,6.30
2023-02-22T07:59:48.572Z,6.38
2023-02-22T08:03:17.005Z,6.47
2023-02-22T08:10:19.575Z,6.65
2023-02-22T08:21:10.631Z,6.94
2023-02-22T08:24:59.923Z,7.03
2023-02-22T08:28:11.667Z,7.10
2023-02-22T08:32:00.892Z,7.19
2023-02-22T08:35:04.255Z,7.27
2023-02-22T08:38:14.848Z,7.37
2023-02-22T08:40:55.657Z,7.42
2023-02-22T08:43:28.599Z,7.49
2023-02-22T08:46:55.258Z,7.59
2023-02-22T08:50:44.579Z,7.70
2023-02-22T08:53:59.310Z,7.81
2023-02-22T08:57:27.809Z,7.89
2023-02-22T09:00:51.411Z,7.99
2023-02-22T09:04:10.805Z,8.07
2023-02-22T09:07:39.130Z,8.15
2023-02-22T09:11:00.463Z,8.22
2023-02-22T09:14:50.216Z,8.33
2023-02-22T09:18:39.123Z,8.44
2023-02-22T09:22:35.548Z,8.61
2023-02-22T09:26:05.638Z,8.82
2023-02-22T09:29:29.624Z,9.00
2023-02-22T09:32:27.435Z,9.07
2023-02-22T09:36:03.728Z,9.07
2023-02-22T09:39:52.923Z,8.96
2023-02-22T09:43:40.336Z,8.87
2023-02-22T09:47:40.460Z,8.72
2023-02-22T09:51:29.659Z,8.61
2023-02-22T10:10:04.612Z,8.43
2023-02-22T10:13:32.915Z,8.42
2023-02-22T10:17:31.220Z,8.40
2023-02-22T10:20:53.368Z,8.36
2023-02-22T10:24:34.040Z,8.33
2023-02-22T10:28:06.077Z,8.31
2023-02-22T10:31:48.126Z,8.30
2023-02-22T10:35:31.524Z,8.27
2023-02-22T10:39:10.041Z,8.27
2023-02-22T10:42:58.118Z,8.26
2023-02-22T10:46:29.040Z,8.25
2023-02-22T10:50:17.723Z,8.29
2023-02-22T10:53:54.737Z,8.30
2023-02-22T10:57:47.306Z,8.33
2023-02-22T11:01:25.617Z,8.40
2023-02-22T11:05:14.815Z,8.51
2023-02-22T11:21:21.664Z,8.61
2023-02-22T11:24:48.813Z,8.68
2023-02-22T11:28:33.479Z,8.72
2023-02-22T11:31:53.954Z,8.79
2023-02-22T11:35:30.395Z,8.85
2023-02-22T11:39:12.558Z,8.97
2023-02-22T11:56:50.769Z,9.37
2023-02-22T12:00:34.817Z,9.27
2023-02-22T12:04:41.630Z,9.19
2023-02-22T12:08:33.108Z,9.24
2023-02-22T12:11:46.633Z,9.36
2023-02-22T12:27:38.005Z,9.64
2023-02-22T12:31:08.966Z,9.61
2023-02-22T12:34:58.120Z,9.53
2023-02-22T12:51:14.748Z,9.10
2023-02-22T12:55:19.461Z,9.11
2023-02-22T12:59:10.498Z,9.09
2023-02-22T13:06:49.702Z,9.02
2023-02-22T13:10:36.820Z,8.97
2023-02-22T13:13:55.403Z,8.89
2023-02-22T13:17:14.753Z,8.87
2023-02-22T13:20:43.286Z,8.86
2023-02-22T13:24:21.065Z,8.84
2023-02-22T13:27:13.281Z,8.82
2023-02-22T13:29:59.277Z,8.83
2023-02-22T13:33:03.059Z,8.82
2023-02-22T13:36:29.715Z,8.81
2023-02-22T13:52:44.116Z,9.18
2023-02-22T13:55:50.633Z,9.30
2023-02-22T13:59:54.160Z,9.36
2023-02-22T14:15:29.098Z,9.48
2023-02-22T14:19:03.315Z,9.41
2023-02-22T14:22:48.129Z,9.26
2023-02-22T14:26:29.576Z,9.11
2023-02-22T14:29:53.906Z,9.02
2023-02-22T14:36:13.039Z,8.86
2023-02-22T14:39:21.898Z,8.78
2023-02-22T14:43:12.114Z,8.78
2023-02-22T14:46:48.384Z,8.74
2023-02-22T14:50:22.889Z,8.68
2023-02-22T15:05:05.184Z,8.44
2023-02-22T15:08:57.001Z,8.39
2023-02-22T15:12:26.821Z,8.38
2023-02-22T15:16:14.857Z,8.40
2023-02-22T15:19:49.874Z,8.41
2023-02-22T15:22:49.260Z,8.39
2023-02-22T15:25:39.192Z,8.36
2023-02-22T15:28:56.407Z,8.34
2023-02-22T15:32:33.704Z,8.30
2023-02-22T15:35:45.905Z,8.26
2023-02-22T15:39:18.871Z,8.22
2023-02-22T15:42:45.223Z,8.17
2023-02-22T15:50:47.888Z,8.07
2023-02-22T15:54:34.124Z,8.00
2023-02-22T15:59:13.697Z,7.92
2023-02-22T16:03:01.411Z,7.86
2023-02-22T16:06:49.333Z,7.82
2023-02-22T16:10:09.469Z,7.76
2023-02-22T16:14:01.393Z,7.70
2023-02-22T16:20:47.366Z,7.60
2023-02-22T16:24:33.010Z,7.54
2023-02-22T16:36:16.669Z,7.34
2023-02-22T16:40:05.955Z,7.28
2023-02-22T16:43:56.621Z,7.23
2023-02-22T16:47:47.322Z,7.17
2023-02-22T16:51:35.233Z,7.12
2023-02-22T17:06:58.345Z,6.89
2023-02-22T17:10:48.074Z,6.82
2023-02-22T17:14:37.040Z,6.75
2023-02-22T17:18:26.175Z,6.68
2023-02-22T17:22:15.405Z,6.63
2023-02-22T17:26:04.644Z,6.55
2023-02-22T17:41:40.143Z,6.12
2023-02-22T17:45:30.066Z,6.02
2023-02-22T17:49:19.058Z,5.90
2023-02-22T17:53:08.483Z,5.81
2023-02-22T17:56:57.522Z,5.74
2023-02-22T18:00:46.988Z,5.67
2023-02-22T18:04:36.251Z,5.59
2023-02-22T18:08:25.845Z,5.51
2023-02-22T18:12:17.380Z,5.44
2023-02-22T18:16:07.468Z,5.39
2023-02-22T18:19:57.463Z,5.38
2023-02-22T18:23:49.663Z,5.36
2023-02-22T18:27:40.715Z,5.35
2023-02-22T18:31:32.063Z,5.33
2023-02-22T18:35:48.838Z,5.27
2023-02-22T18:39:38.174Z,5.20
2023-02-22T18:43:27.387Z,5.14
2023-02-22T18:47:17.899Z,5.11
2023-02-22T18:51:06.625Z,5.06
2023-02-22T18:54:58.626Z,5.02
2023-02-22T18:58:47.669Z,5.00
2023-02-22T19:02:36.995Z,4.97
2023-02-22T19:06:26.853Z,4.92
2023-02-22T19:10:16.240Z,4.86
2023-02-22T19:14:05.499Z,4.81
2023-02-22T19:17:54.944Z,4.77
2023-02-22T19:21:47.200Z,4.75
2023-02-22T19:41:05.104Z,4.57
2023-02-22T19:44:55.222Z,4.53
2023-02-22T19:48:44.154Z,4.48
2023-02-22T19:52:25.584Z,4.45
2023-02-22T19:56:14.872Z,4.41
2023-02-22T20:00:07.374Z,4.38
2023-02-22T20:03:40.395Z,4.37
2023-02-22T20:07:29.710Z,4.31
2023-02-22T20:11:19.545Z,4.21
2023-02-22T20:15:09.089Z,4.17
2023-02-22T20:18:58.499Z,4.12
2023-02-22T20:22:47.483Z,4.04
2023-02-22T20:26:27.389Z,3.96
2023-02-22T20:30:16.827Z,3.90
2023-02-22T20:34:06.564Z,3.81
2023-02-22T20:37:47.183Z,3.73
2023-02-22T20:53:27.797Z,3.50
2023-02-22T20:57:16.760Z,3.49
2023-02-22T21:01:06.058Z,3.47
2023-02-22T21:04:55.355Z,3.46
2023-02-22T21:08:44.454Z,3.45
2023-02-22T21:12:33.560Z,3.45
2023-02-22T21:16:23.043Z,3.41
2023-02-22T21:20:12.431Z,3.37
2023-02-22T21:24:01.391Z,3.28
2023-02-22T21:27:50.697Z,3.19
2023-02-22T21:31:39.915Z,3.10
2023-02-22T21:35:29.168Z,3.02
2023-02-22T21:39:18.313Z,2.95
2023-02-22T21:43:07.537Z,2.86
2023-02-22T21:46:55.474Z,2.76
2023-02-22T21:50:46.670Z,2.67
2023-02-22T21:54:35.454Z,2.59
2023-02-22T21:58:24.209Z,2.49
2023-02-22T22:02:13.193Z,2.41
2023-02-22T22:06:01.448Z,2.30
2023-02-22T22:09:55.056Z,2.19
2023-02-22T22:13:46.245Z,2.07
2023-02-22T22:40:38.601Z,1.50
2023-02-22T22:44:27.642Z,1.44
2023-02-22T22:48:19.448Z,1.40
2023-02-22T22:52:08.561Z,1.35
2023-02-22T22:55:57.664Z,1.28
2023-02-22T22:59:27.879Z,1.21
2023-02-22T23:11:10.339Z,1.06
2023-02-22T23:15:05.300Z,0.98
2023-02-22T23:18:54.317Z,0.88
2023-02-22T23:22:43.308Z,0.82
2023-02-22T23:26:32.263Z,0.77
2023-02-22T23:30:21.591Z,0.74
2023-02-22T23:34:11.322Z,0.70
2023-02-22T23:38:00.464Z,0.64
2023-02-22T23:41:50.421Z,0.59
2023-02-22T23:45:43.707Z,0.52
